Time;durP1;ratioP1;P1;durP2;ratioP2;P2;SDS_P1;SDS_P2;PMS_P1;PMS_P2;Temp;Humidity;BMP_temperature;BMP_pressure;BME280_temperature;BME280_humidity;BME280_pressure;Samples;Min_cycle;Max_cycle;Signal;HPM_P1;HPM_P2
2022/08/09 00:00:51;;;;;;;7.03;2.20;;;;;;;24.00;67.71;98690.34;4976410;28;1119007;-58
2022/08/09 00:03:17;;;;;;;6.53;2.20;;;;;;;23.92;67.70;98686.19;5021888;28;20322;-61
2022/08/09 00:05:42;;;;;;;5.70;1.90;;;;;;;24.03;67.08;98689.09;5019345;28;20121;-58
2022/08/09 00:08:09;;;;;;;4.70;1.95;;;;;;;23.95;68.09;98687.59;5015955;28;20030;-58
2022/08/09 00:10:35;;;;;;;7.13;2.05;;;;;;;23.90;68.09;98692.78;5022408;28;20276;-59
2022/08/09 00:13:00;;;;;;;5.95;3.35;;;;;;;23.83;68.64;98692.06;5019320;28;20044;-56
2022/08/09 00:15:26;;;;;;;4.57;1.90;;;;;;;23.73;69.12;98693.41;5017663;28;20046;-57
2022/08/09 00:17:51;;;;;;;3.60;1.70;;;;;;;23.78;68.71;98692.72;5022234;28;20581;-60
2022/08/09 00:20:17;;;;;;;3.80;1.88;;;;;;;23.57;69.13;98686.09;5020595;28;20033;-58
2022/08/09 00:22:42;;;;;;;4.25;1.92;;;;;;;23.66;69.03;98692.69;5021101;28;20033;-58
2022/08/09 00:25:08;;;;;;;4.07;1.92;;;;;;;23.37;69.56;98654.56;5016938;28;20088;-59
2022/08/09 00:27:33;;;;;;;4.32;2.10;;;;;;;23.53;70.08;98688.41;5003312;28;20029;-59
2022/08/09 00:30:00;;;;;;;4.57;2.03;;;;;;;23.51;70.31;98693.13;5018341;28;20052;-59
2022/08/09 00:32:25;;;;;;;5.22;2.17;;;;;;;23.48;70.68;98682.97;5021854;28;20044;-58
2022/08/09 00:34:51;;;;;;;5.03;2.20;;;;;;;23.51;70.61;98693.13;5012375;28;20751;-58
2022/08/09 00:37:16;;;;;;;5.78;1.98;;;;;;;23.58;70.27;98682.41;5018197;28;20653;-57
2022/08/09 00:39:41;;;;;;;4.03;2.00;;;;;;;23.51;70.60;98689.66;5017974;28;20025;-57
2022/08/09 00:42:07;;;;;;;4.00;1.90;;;;;;;23.40;70.93;98689.41;5020525;28;20456;-60
2022/08/09 00:44:32;;;;;;;5.03;2.17;;;;;;;23.39;71.16;98694.94;5016649;28;20029;-58
2022/08/09 00:46:58;;;;;;;4.28;2.10;;;;;;;23.42;70.73;98694.50;5019760;28;20045;-57
2022/08/09 00:49:23;;;;;;;4.40;2.05;;;;;;;23.35;70.94;98693.78;5019411;28;20038;-61
2022/08/09 00:51:48;;;;;;;4.38;2.10;;;;;;;23.35;70.85;98693.78;5010982;28;20029;-58
2022/08/09 00:54:14;;;;;;;5.75;2.20;;;;;;;23.34;71.02;98695.59;5018830;28;20029;-58
2022/08/09 00:56:40;;;;;;;4.70;2.20;;;;;;;23.22;70.89;98665.59;5003797;28;20036;-59
2022/08/09 00:59:06;;;;;;;4.55;2.08;;;;;;;23.47;70.74;98699.09;5003793;28;20063;-59
2022/08/09 01:01:36;;;;;;;5.18;2.10;;;;;;;23.33;70.97;98686.03;5016719;28;20535;-57
2022/08/09 01:04:22;;;;;;;4.05;1.90;;;;;;;22.99;71.12;98645.06;5004000;28;20044;-59
2022/08/09 01:07:13;;;;;;;4.20;1.90;;;;;;;23.22;71.34;98695.56;5016179;28;20033;-60
2022/08/09 01:09:40;;;;;;;4.88;1.90;;;;;;;23.28;71.71;98696.50;5003544;28;20049;-56
2022/08/09 01:12:24;;;;;;;4.40;2.03;;;;;;;23.20;72.21;98702.94;5018669;28;20037;-59
2022/08/09 01:15:16;;;;;;;3.90;2.00;;;;;;;23.20;72.72;98707.41;5015850;28;20103;-56
2022/08/09 01:17:58;;;;;;;4.40;2.25;;;;;;;23.29;72.71;98719.34;5014393;28;20029;-59
2022/08/09 01:20:49;;;;;;;7.72;2.05;;;;;;;23.19;73.17;98705.81;5035851;28;20022;-58
2022/08/09 01:23:35;;;;;;;6.88;2.28;;;;;;;23.22;73.10;98714.13;5019337;28;20473;-56
2022/08/09 01:26:13;;;;;;;4.43;2.10;;;;;;;23.21;73.29;98715.16;5023923;28;20018;-56
2022/08/09 01:28:41;;;;;;;4.82;2.20;;;;;;;23.14;73.68;98714.44;5016839;28;20036;-56
2022/08/09 01:31:10;;;;;;;5.55;2.00;;;;;;;23.10;74.09;98717.75;5021394;28;20025;-57
2022/08/09 01:33:37;;;;;;;6.00;2.58;;;;;;;23.11;74.16;98714.06;5013129;28;20037;-57
2022/08/09 01:36:23;;;;;;;5.65;2.40;;;;;;;23.11;74.28;98722.03;4998846;28;20040;-57
2022/08/09 01:38:49;;;;;;;4.22;2.20;;;;;;;23.10;74.29;98718.56;5019359;28;20070;-56
2022/08/09 01:41:17;;;;;;;4.93;2.22;;;;;;;22.92;74.84;98708.75;4999008;28;20026;-56
2022/08/09 01:43:50;;;;;;;4.57;2.10;;;;;;;22.72;74.74;98679.84;5019032;28;20321;-59
2022/08/09 01:46:17;;;;;;;4.40;2.20;;;;;;;22.93;74.36;98712.25;5003512;28;20030;-57
2022/08/09 01:48:43;;;;;;;4.80;2.05;;;;;;;22.93;74.45;98704.28;5013086;28;20034;-57
2022/08/09 01:51:09;;;;;;;4.35;2.30;;;;;;;22.90;74.53;98708.16;5018276;28;20021;-57
2022/08/09 01:53:35;;;;;;;4.97;1.88;;;;;;;22.81;74.28;98702.34;5009056;28;20038;-59
2022/08/09 01:56:02;;;;;;;5.07;2.28;;;;;;;22.95;74.00;98718.94;5019806;28;20805;-59
2022/08/09 01:58:28;;;;;;;4.28;2.25;;;;;;;22.95;73.86;98728.72;5014617;28;20038;-58
2022/08/09 02:00:55;;;;;;;4.30;1.90;;;;;;;22.78;74.36;98699.34;5018158;28;20140;-59
2022/08/09 02:03:21;;;;;;;4.40;2.00;;;;;;;22.74;74.19;98685.72;5004253;28;20045;-57
2022/08/09 02:05:48;;;;;;;5.65;2.10;;;;;;;22.92;73.69;98716.72;5018637;28;20681;-57
2022/08/09 02:08:17;;;;;;;5.55;2.15;;;;;;;23.07;73.71;98721.66;4997329;28;20367;-59
2022/08/09 02:10:45;;;;;;;4.57;2.30;;;;;;;22.79;73.33;98685.88;5014687;28;20034;-58
2022/08/09 02:13:11;;;;;;;3.88;1.90;;;;;;;22.99;73.43;98719.28;5001781;28;20088;-56
2022/08/09 02:15:39;;;;;;;4.82;2.20;;;;;;;22.94;73.58;98716.50;5003583;28;20017;-60
2022/08/09 02:18:06;;;;;;;5.32;2.05;;;;;;;23.01;72.94;98718.03;4998655;28;20494;-59
2022/08/09 02:20:35;;;;;;;5.82;2.05;;;;;;;22.46;73.41;98657.91;5002035;28;20472;-58
2022/08/09 02:23:03;;;;;;;5.13;1.80;;;;;;;22.97;72.96;98724.00;5002172;28;20045;-58
2022/08/09 02:25:32;;;;;;;4.35;2.05;;;;;;;23.02;72.34;98726.81;5018852;28;20092;-58
2022/08/09 02:28:19;;;;;;;4.30;2.10;;;;;;;23.15;72.29;98747.09;5016076;28;20033;-59
2022/08/09 02:30:48;;;;;;;5.13;1.92;;;;;;;23.17;72.12;98748.47;5013991;28;20496;-60
2022/08/09 02:33:19;;;;;;;6.85;1.88;;;;;;;23.26;71.38;98750.81;5032580;28;20640;-61
2022/08/09 02:35:45;;;;;;;3.78;1.83;;;;;;;23.28;71.11;98754.06;5018347;28;20057;-59
2022/08/09 02:38:11;;;;;;;4.15;2.05;;;;;;;23.33;70.64;98757.66;5004288;28;20034;-58
2022/08/09 02:40:37;;;;;;;4.32;1.88;;;;;;;23.32;70.63;98752.56;5017911;28;20029;-57
2022/08/09 02:43:03;;;;;;;4.00;1.95;;;;;;;23.34;71.23;98746.00;5017450;28;20033;-58
2022/08/09 02:45:32;;;;;;;4.68;2.40;;;;;;;23.38;70.91;98746.34;4998648;28;20161;-57
2022/08/09 02:48:02;;;;;;;4.20;2.10;;;;;;;23.14;70.39;98711.78;5002415;28;20120;-60
2022/08/09 02:50:56;;;;;;;4.63;2.28;;;;;;;23.29;69.90;98745.88;5017456;28;20029;-59
2022/08/09 02:53:22;;;;;;;5.00;2.03;;;;;;;23.12;70.66;98715.69;5004858;28;20048;-61
2022/08/09 02:55:48;;;;;;;5.28;2.20;;;;;;;23.34;70.10;98742.53;5025299;28;20025;-58
2022/08/09 02:58:16;;;;;;;5.65;2.20;;;;;;;23.42;69.79;98740.41;5021349;28;20033;-58
2022/08/09 03:00:41;;;;;;;4.97;2.28;;;;;;;23.42;69.86;98744.91;5005248;28;20029;-58
2022/08/09 03:03:07;;;;;;;5.22;2.08;;;;;;;23.15;70.63;98713.41;5023295;28;20028;-56
2022/08/09 03:05:33;;;;;;;5.32;2.40;;;;;;;23.46;70.29;98742.59;5022075;28;20104;-57
2022/08/09 03:07:59;;;;;;;4.05;2.03;;;;;;;23.48;70.15;98730.72;5017400;28;20038;-63
2022/08/09 03:10:25;;;;;;;4.75;2.30;;;;;;;23.54;70.86;98726.34;5005456;28;20025;-59
2022/08/09 03:12:52;;;;;;;4.15;2.00;;;;;;;23.54;70.99;98729.00;5001478;28;20021;-60
2022/08/09 03:15:19;;;;;;;5.22;2.47;;;;;;;23.49;70.88;98721.75;5006213;28;20512;-62
2022/08/09 03:17:44;;;;;;;5.47;2.20;;;;;;;23.50;71.05;98725.19;5021704;28;20518;-57
2022/08/09 03:20:10;;;;;;;4.07;2.08;;;;;;;23.53;71.03;98722.06;5020527;28;20040;-59
2022/08/09 03:22:39;;;;;;;4.55;2.08;;;;;;;23.33;70.97;98691.34;5019674;28;20025;-58
2022/08/09 03:25:06;;;;;;;4.60;2.30;;;;;;;23.33;71.40;98728.47;5020945;28;20040;-58
2022/08/09 03:27:32;;;;;;;6.95;2.90;;;;;;;23.10;71.12;98688.59;5007983;28;20025;-61
2022/08/09 03:29:57;;;;;;;4.88;2.00;;;;;;;23.34;71.57;98723.97;5027428;28;20611;-60
2022/08/09 03:32:23;;;;;;;5.03;2.50;;;;;;;23.42;71.64;98718.38;5021288;28;20064;-59
2022/08/09 03:34:48;;;;;;;5.03;2.47;;;;;;;23.37;71.65;98711.06;5023057;28;20474;-58
2022/08/09 03:37:14;;;;;;;4.43;2.40;;;;;;;23.14;70.90;98682.59;5018868;28;20032;-58
2022/08/09 03:39:39;;;;;;;5.65;2.45;;;;;;;23.46;71.21;98724.03;5021665;28;20563;-56
2022/08/09 03:42:05;;;;;;;4.88;2.20;;;;;;;23.30;71.36;98705.03;5019322;28;20040;-58
2022/08/09 03:44:30;;;;;;;4.80;2.40;;;;;;;23.46;72.00;98735.44;5021236;28;20074;-61
2022/08/09 03:46:55;;;;;;;4.63;2.50;;;;;;;23.13;71.24;98696.91;5013214;28;20025;-58
2022/08/09 03:49:23;;;;;;;5.38;2.53;;;;;;;23.31;71.18;98722.59;5026088;28;20048;-57
2022/08/09 03:51:52;;;;;;;4.72;2.47;;;;;;;23.20;70.57;98718.84;5024848;28;20045;-59
2022/08/09 03:54:18;;;;;;;5.50;2.30;;;;;;;23.05;70.73;98720.28;5002461;28;20034;-59
2022/08/09 03:56:44;;;;;;;4.50;2.60;;;;;;;22.92;71.23;98705.31;5016514;28;20014;-57
2022/08/09 03:59:09;;;;;;;5.55;2.70;;;;;;;23.08;71.46;98744.50;5012728;28;20565;-61
2022/08/09 04:01:35;;;;;;;5.40;2.45;;;;;;;23.13;72.17;98739.34;5012550;28;20045;-57
2022/08/09 04:04:02;;;;;;;5.45;2.70;;;;;;;23.08;71.75;98741.84;4998968;28;20036;-60
2022/08/09 04:06:28;;;;;;;7.88;2.30;;;;;;;23.05;72.53;98729.03;5002820;28;20025;-58
2022/08/09 04:08:53;;;;;;;6.10;2.78;;;;;;;23.08;71.79;98731.25;5022402;28;20061;-59
2022/08/09 04:11:18;;;;;;;4.60;2.50;;;;;;;22.89;71.89;98717.16;5012957;28;20035;-57
2022/08/09 04:13:44;;;;;;;5.15;2.65;;;;;;;22.97;73.38;98748.69;5015140;28;20044;-57
2022/08/09 04:16:09;;;;;;;4.45;2.40;;;;;;;23.02;73.27;98746.16;5018290;28;20402;-61
2022/08/09 04:18:34;;;;;;;4.70;2.17;;;;;;;23.07;73.61;98748.16;5013777;28;20029;-56
2022/08/09 04:21:00;;;;;;;5.70;2.72;;;;;;;23.14;72.54;98745.44;5001594;28;20078;-59
2022/08/09 04:23:25;;;;;;;4.82;2.53;;;;;;;23.18;72.26;98750.09;5019722;28;20120;-59
2022/08/09 04:25:51;;;;;;;4.78;2.60;;;;;;;22.82;71.85;98687.28;5019858;28;20021;-56
2022/08/09 04:28:20;;;;;;;6.85;2.47;;;;;;;23.23;71.99;98752.88;5000820;28;20720;-57
2022/08/09 04:30:45;;;;;;;4.47;2.47;;;;;;;23.09;72.92;98756.75;5015184;28;20033;-57
2022/08/09 04:33:10;;;;;;;4.93;2.58;;;;;;;23.01;74.15;98760.44;5012392;28;20042;-57
2022/08/09 04:35:38;;;;;;;4.65;2.47;;;;;;;23.00;74.42;98758.84;5020208;28;20026;-57
2022/08/09 04:38:04;;;;;;;5.30;2.58;;;;;;;22.78;74.74;98720.53;4996341;28;20034;-57
2022/08/09 04:40:47;;;;;;;4.57;2.55;;;;;;;22.92;74.90;98764.44;5020052;28;20031;-59
2022/08/09 04:43:13;;;;;;;4.60;2.45;;;;;;;22.94;74.97;98762.38;5012650;28;20076;-61
2022/08/09 04:45:40;;;;;;;4.72;2.60;;;;;;;22.88;75.42;98765.91;5020594;28;20037;-57
2022/08/09 04:48:05;;;;;;;6.07;2.58;;;;;;;22.68;74.79;98726.38;5013576;28;20044;-57
2022/08/09 04:50:31;;;;;;;4.43;2.30;;;;;;;22.87;75.67;98761.63;5019627;28;20037;-59
2022/08/09 04:52:56;;;;;;;5.07;2.10;;;;;;;22.86;76.01;98769.81;5002947;28;20037;-58
2022/08/09 04:55:22;;;;;;;4.63;2.30;;;;;;;22.81;76.29;98760.66;5007640;28;20044;-57
2022/08/09 04:57:47;;;;;;;7.10;2.70;;;;;;;22.87;75.79;98760.81;5010710;28;20547;-59
2022/08/09 05:00:13;;;;;;;5.15;2.50;;;;;;;22.75;75.64;98758.09;5020751;28;20033;-61
2022/08/09 05:02:40;;;;;;;4.85;2.53;;;;;;;22.72;75.72;98761.19;5020672;28;20642;-58
2022/08/09 05:05:06;;;;;;;5.68;2.65;;;;;;;22.83;74.92;98769.25;5014702;28;20045;-60
2022/08/09 05:07:31;;;;;;;4.88;2.50;;;;;;;22.87;74.45;98769.56;5015949;28;20056;-57
2022/08/09 05:09:56;;;;;;;5.18;2.70;;;;;;;22.87;74.84;98774.06;5012338;28;20028;-56
2022/08/09 05:12:22;;;;;;;5.10;2.35;;;;;;;22.81;74.63;98779.22;5019278;28;20105;-57
2022/08/09 05:14:47;;;;;;;5.55;2.55;;;;;;;22.86;74.36;98786.53;5023615;28;20029;-59
2022/08/09 05:17:13;;;;;;;5.93;2.13;;;;;;;22.83;74.74;98785.13;5018156;28;20033;-58
2022/08/09 05:19:38;;;;;;;6.53;2.80;;;;;;;22.85;74.37;98784.91;5019525;28;20525;-57
2022/08/09 05:22:03;;;;;;;4.38;2.50;;;;;;;22.82;74.59;98786.16;5025255;28;20068;-58
2022/08/09 05:24:29;;;;;;;5.22;2.35;;;;;;;22.87;74.07;98779.38;5015562;28;20044;-56
2022/08/09 05:26:54;;;;;;;5.32;2.58;;;;;;;23.01;73.74;98788.81;5011447;28;20042;-58
2022/08/09 05:29:20;;;;;;;5.38;2.60;;;;;;;23.05;74.18;98797.16;5011325;28;20025;-60
2022/08/09 05:31:46;;;;;;;4.97;2.70;;;;;;;23.07;73.64;98792.44;5020919;28;20842;-58
2022/08/09 05:34:12;;;;;;;5.13;2.67;;;;;;;23.02;72.86;98796.56;4998123;28;20036;-57
2022/08/09 05:36:37;;;;;;;5.35;2.50;;;;;;;23.01;72.43;98794.91;5020337;28;20440;-59
2022/08/09 05:39:02;;;;;;;5.95;2.60;;;;;;;23.08;72.21;98804.69;5019159;28;20684;-56
2022/08/09 05:41:28;;;;;;;5.00;2.50;;;;;;;23.02;72.09;98811.66;5014767;28;20140;-58
2022/08/09 05:43:53;;;;;;;4.30;2.45;;;;;;;22.98;72.30;98805.97;5021763;28;20384;-60
2022/08/09 05:46:19;;;;;;;5.13;2.40;;;;;;;23.11;72.26;98814.84;5016404;28;20025;-59
2022/08/09 05:48:44;;;;;;;4.60;2.63;;;;;;;23.15;72.23;98810.72;5016437;28;20041;-57
2022/08/09 05:51:09;;;;;;;5.20;2.60;;;;;;;23.10;72.00;98815.88;5019592;28;20392;-59
2022/08/09 05:53:35;;;;;;;5.95;2.70;;;;;;;23.23;71.67;98827.13;5016495;28;20475;-60
2022/08/09 05:56:00;;;;;;;5.20;2.55;;;;;;;23.27;72.19;98818.75;5020207;28;20115;-56
2022/08/09 05:58:25;;;;;;;4.90;2.63;;;;;;;23.39;72.03;98835.53;5016024;28;20388;-58
2022/08/09 06:00:51;;;;;;;5.05;2.97;;;;;;;23.51;72.13;98835.59;5011438;28;20052;-57
2022/08/09 06:03:16;;;;;;;6.32;2.75;;;;;;;23.56;72.16;98839.19;5013534;28;20104;-56
2022/08/09 06:05:41;;;;;;;5.30;2.90;;;;;;;23.54;72.49;98829.84;4967618;28;20034;-59
2022/08/09 06:08:07;;;;;;;4.40;2.45;;;;;;;23.64;72.18;98835.44;5051512;28;20425;-56
2022/08/09 06:10:37;;;;;;;5.35;2.55;;;;;;;23.74;72.25;98838.34;5018811;28;20026;-57
2022/08/09 06:13:12;;;;;;;4.63;2.90;;;;;;;23.73;71.90;98838.56;5023255;28;20088;-60
2022/08/09 06:15:38;;;;;;;4.78;2.58;;;;;;;23.73;72.09;98828.78;5007789;28;20042;-59
2022/08/09 06:18:04;;;;;;;6.00;2.70;;;;;;;23.88;70.84;98831.06;5004490;28;20032;-58
2022/08/09 06:20:30;;;;;;;5.10;2.53;;;;;;;23.92;70.67;98836.72;5007432;28;20033;-57
2022/08/09 06:22:57;;;;;;;4.57;2.42;;;;;;;23.97;70.52;98832.34;5003166;28;20038;-59
2022/08/09 06:25:22;;;;;;;5.68;2.90;;;;;;;23.92;70.68;98834.06;5005801;28;20025;-59
2022/08/09 06:27:48;;;;;;;5.45;2.75;;;;;;;23.98;69.53;98838.47;5003881;28;20044;-58
2022/08/09 06:30:13;;;;;;;5.15;2.55;;;;;;;24.04;70.03;98839.41;5001737;28;20404;-61
2022/08/09 06:32:39;;;;;;;5.63;2.50;;;;;;;24.02;70.15;98826.34;4997282;28;20029;-58
2022/08/09 06:35:05;;;;;;;5.70;2.80;;;;;;;24.17;69.66;98841.88;5005243;28;20040;-56
2022/08/09 06:37:30;;;;;;;5.05;2.40;;;;;;;24.25;69.69;98846.84;5004413;28;20029;-58
2022/08/09 06:39:56;;;;;;;5.40;2.58;;;;;;;24.06;69.00;98811.59;5004987;28;20446;-58
2022/08/09 06:42:22;;;;;;;9.98;2.72;;;;;;;24.34;68.85;98836.72;5007070;28;20029;-59
2022/08/09 06:44:47;;;;;;;4.65;2.72;;;;;;;24.40;68.17;98848.28;5001992;28;20033;-57
2022/08/09 06:47:14;;;;;;;5.45;2.70;;;;;;;24.46;67.78;98845.53;5007163;28;20690;-59
2022/08/09 06:49:39;;;;;;;4.88;2.60;;;;;;;24.54;67.27;98836.41;5008423;28;20029;-60
2022/08/09 06:52:05;;;;;;;6.28;2.67;;;;;;;24.66;67.22;98836.41;5009975;28;20040;-56
2022/08/09 06:54:30;;;;;;;6.57;3.10;;;;;;;24.56;67.14;98837.78;5007752;28;20080;-59
2022/08/09 06:56:56;;;;;;;6.68;3.30;;;;;;;24.64;66.80;98838.50;5012660;28;22171;-57
2022/08/09 06:59:21;;;;;;;5.20;3.10;;;;;;;24.69;66.18;98846.59;5006056;28;20079;-57
2022/08/09 07:01:47;;;;;;;6.00;3.60;;;;;;;24.67;63.25;98846.03;5011709;28;20032;-59
2022/08/09 07:04:12;;;;;;;5.75;3.33;;;;;;;24.77;60.91;98845.44;5007835;28;20064;-58
2022/08/09 07:06:38;;;;;;;6.95;3.90;;;;;;;24.83;60.47;98847.97;5013862;28;20132;-59
2022/08/09 07:09:03;;;;;;;5.53;3.50;;;;;;;24.80;60.62;98859.06;5013263;28;20033;-59
2022/08/09 07:11:29;;;;;;;8.52;3.80;;;;;;;24.79;60.88;98851.31;5017316;28;20037;-57
2022/08/09 07:13:54;;;;;;;6.18;3.55;;;;;;;24.81;61.12;98854.59;5017844;28;20759;-58
2022/08/09 07:16:19;;;;;;;6.70;3.90;;;;;;;24.88;60.56;98855.25;5013315;28;20048;-57
2022/08/09 07:18:45;;;;;;;6.97;3.83;;;;;;;25.02;59.62;98851.31;5016931;28;20525;-58
2022/08/09 07:21:10;;;;;;;6.05;3.50;;;;;;;25.01;59.66;98856.84;5016238;28;20076;-58
2022/08/09 07:23:36;;;;;;;7.38;4.43;;;;;;;24.88;57.60;98832.16;5020144;28;20033;-59
2022/08/09 07:26:02;;;;;;;6.90;4.55;;;;;;;24.77;55.12;98822.34;5019631;28;20025;-57
2022/08/09 07:28:29;;;;;;;6.05;4.50;;;;;;;24.98;54.93;98850.16;5018368;28;20043;-57
2022/08/09 07:30:55;;;;;;;7.75;4.15;;;;;;;25.17;54.37;98844.69;5018180;28;20045;-58
2022/08/09 07:33:20;;;;;;;7.00;4.50;;;;;;;25.32;54.34;98847.72;5019739;28;20025;-57
2022/08/09 07:35:45;;;;;;;6.75;4.63;;;;;;;25.42;53.72;98844.44;5019715;28;20022;-56
2022/08/09 07:38:11;;;;;;;6.70;4.47;;;;;;;25.29;54.77;98835.69;5004849;28;20025;-58
2022/08/09 07:40:36;;;;;;;7.55;4.50;;;;;;;25.39;54.33;98844.91;5019350;28;20025;-55
2022/08/09 07:43:02;;;;;;;6.90;4.55;;;;;;;25.37;53.97;98845.16;5015834;28;20519;-56
2022/08/09 07:45:29;;;;;;;7.00;4.38;;;;;;;25.38;54.14;98844.13;5018317;28;20018;-58
2022/08/09 07:47:55;;;;;;;8.52;4.20;;;;;;;25.52;54.10;98842.81;5017614;28;20056;-56
2022/08/09 07:50:23;;;;;;;8.02;4.50;;;;;;;25.35;54.33;98827.81;5011930;28;20100;-62
2022/08/09 07:52:49;;;;;;;6.30;4.13;;;;;;;25.54;53.57;98847.91;5013809;28;20631;-58
2022/08/09 07:55:15;;;;;;;8.57;4.47;;;;;;;25.66;53.35;98840.66;5006756;28;20033;-58
2022/08/09 07:57:40;;;;;;;7.07;4.53;;;;;;;25.66;53.19;98845.97;4991008;28;20098;-59
2022/08/09 08:00:06;;;;;;;7.38;4.70;;;;;;;25.67;51.90;98841.50;5004820;28;20029;-58
2022/08/09 08:02:32;;;;;;;7.20;4.85;;;;;;;25.63;51.82;98848.34;5010789;28;20033;-57
2022/08/09 08:04:57;;;;;;;9.43;4.63;;;;;;;25.58;51.72;98851.69;5015124;28;20026;-58
2022/08/09 08:07:23;;;;;;;6.88;4.55;;;;;;;25.64;51.59;98841.94;5017411;28;20576;-58
2022/08/09 08:09:48;;;;;;;8.35;4.20;;;;;;;25.58;51.48;98846.38;5014376;28;20573;-59
2022/08/09 08:12:14;;;;;;;7.95;4.03;;;;;;;25.68;50.91;98819.13;5000932;28;20030;-58
2022/08/09 08:14:39;;;;;;;7.22;3.88;;;;;;;25.87;51.09;98847.19;5013887;28;20599;-57
2022/08/09 08:17:05;;;;;;;8.63;4.47;;;;;;;25.96;50.45;98846.84;5013813;28;20025;-59
2022/08/09 08:19:31;;;;;;;6.97;4.50;;;;;;;25.95;50.85;98848.69;5012387;28;20087;-59
2022/08/09 08:21:56;;;;;;;7.00;4.28;;;;;;;26.00;50.40;98850.63;5014762;28;20080;-58
2022/08/09 08:24:22;;;;;;;6.90;4.40;;;;;;;25.96;49.93;98847.63;5011500;28;20040;-56
2022/08/09 08:26:47;;;;;;;6.82;4.10;;;;;;;25.96;49.85;98852.97;5013011;28;20037;-60
2022/08/09 08:29:13;;;;;;;8.85;4.40;;;;;;;25.96;49.91;98852.97;5012990;28;20627;-58
2022/08/09 08:31:39;;;;;;;8.02;4.63;;;;;;;25.57;50.23;98809.34;5009779;28;20075;-58
2022/08/09 08:34:04;;;;;;;6.72;4.40;;;;;;;25.76;50.41;98856.03;5016268;28;20034;-57
2022/08/09 08:36:30;;;;;;;7.43;4.35;;;;;;;25.96;49.44;98844.19;5015658;28;20100;-60
2022/08/09 08:38:55;;;;;;;6.97;4.20;;;;;;;25.95;49.98;98855.88;5011960;28;20045;-57
2022/08/09 08:41:21;;;;;;;8.05;4.18;;;;;;;26.18;49.92;98849.63;5013271;28;20025;-60
2022/08/09 08:43:46;;;;;;;8.13;4.55;;;;;;;26.14;49.70;98848.47;5019753;28;20055;-58
2022/08/09 08:46:13;;;;;;;6.15;4.03;;;;;;;26.07;49.52;98851.28;5018965;28;20026;-58
2022/08/09 08:48:41;;;;;;;7.82;4.25;;;;;;;26.20;49.13;98855.50;5014217;28;20150;-57
2022/08/09 08:51:06;;;;;;;6.80;4.47;;;;;;;26.21;48.96;98847.28;5010244;28;20138;-57
2022/08/09 08:53:32;;;;;;;7.68;4.45;;;;;;;26.32;48.69;98845.56;5011192;28;20642;-58
2022/08/09 08:55:58;;;;;;;7.43;4.53;;;;;;;26.29;47.49;98840.72;4995248;28;20848;-58
2022/08/09 08:58:24;;;;;;;7.43;4.35;;;;;;;26.12;48.05;98814.09;5015325;28;20908;-59
2022/08/09 09:00:49;;;;;;;7.22;4.53;;;;;;;26.32;48.42;98839.44;5002705;28;20503;-56
2022/08/09 09:03:15;;;;;;;9.05;4.20;;;;;;;26.64;47.40;98848.50;5010679;28;20033;-58
2022/08/09 09:05:41;;;;;;;7.43;4.00;;;;;;;26.62;47.50;98834.59;4992067;28;20107;-56
2022/08/09 09:08:07;;;;;;;7.50;4.55;;;;;;;26.68;46.97;98798.16;5026989;28;20139;-58
2022/08/09 09:10:33;;;;;;;11.32;4.63;;;;;;;26.87;46.99;98830.72;4995228;28;20033;-60
2022/08/09 09:12:58;;;;;;;7.15;4.30;;;;;;;26.88;47.16;98834.16;5013547;28;20396;-59
2022/08/09 09:15:24;;;;;;;6.72;4.10;;;;;;;27.59;44.59;98828.94;5020612;28;20026;-59
2022/08/09 09:17:49;;;;;;;6.30;4.47;;;;;;;28.25;43.38;98827.97;5017136;28;20029;-59
2022/08/09 09:20:15;;;;;;;6.00;4.13;;;;;;;28.69;41.96;98822.44;5016543;28;20044;-57
2022/08/09 09:22:55;;;;;;;7.95;4.50;;;;;;;28.56;41.97;98835.19;5017748;28;20021;-59
2022/08/09 09:25:40;;;;;;;7.43;5.07;;;;;;;27.88;44.23;98823.34;5000570;28;20728;-55
2022/08/09 09:28:07;;;;;;;8.30;5.00;;;;;;;27.83;43.75;98833.97;5021059;28;20029;-56
2022/08/09 09:30:34;;;;;;;6.93;4.68;;;;;;;27.84;43.75;98819.56;4997503;28;20037;-59
2022/08/09 09:33:07;;;;;;;6.13;4.10;;;;;;;27.88;44.03;98828.69;5005233;28;20029;-58
2022/08/09 09:35:33;;;;;;;8.55;4.75;;;;;;;27.65;44.40;98819.91;5018089;28;20037;-59
2022/08/09 09:37:59;;;;;;;6.63;4.75;;;;;;;27.53;44.32;98820.06;5010912;28;20040;-59
2022/08/09 09:40:41;;;;;;;7.75;4.53;;;;;;;27.47;45.10;98810.38;5015633;28;20037;-57
2022/08/09 09:43:06;;;;;;;7.25;4.70;;;;;;;27.54;44.59;98816.31;5013335;28;20047;-58
2022/08/09 09:45:49;;;;;;;6.40;4.68;;;;;;;27.56;44.74;98816.91;5020097;28;20408;-60
2022/08/09 09:48:15;;;;;;;6.20;4.18;;;;;;;27.47;44.33;98809.56;5012712;28;20027;-55
2022/08/09 09:50:46;;;;;;;9.25;5.20;;;;;;;27.34;44.56;98792.06;5019769;28;20025;-57
2022/08/09 09:53:16;;;;;;;10.23;5.15;;;;;;;27.28;44.60;98796.53;5013143;28;20088;-62
2022/08/09 09:55:52;;;;;;;7.63;4.93;;;;;;;27.24;44.53;98795.41;5000043;28;20096;-57
2022/08/09 09:58:18;;;;;;;7.30;4.80;;;;;;;27.33;45.08;98785.94;4999135;28;20115;-60
2022/08/09 10:00:47;;;;;;;6.97;4.90;;;;;;;27.38;44.22;98794.00;4999872;28;20668;-64
2022/08/09 10:03:13;;;;;;;;;;;;;;;27.41;44.87;98792.69;5013489;28;20028;-58
2022/08/09 10:05:58;;;;;;;7.20;4.53;;;;;;;27.42;44.32;98788.97;5018470;28;20284;-62
2022/08/09 10:08:23;;;;;;;6.55;4.70;;;;;;;27.38;44.45;98779.81;5015930;28;20075;-60
2022/08/09 10:10:50;;;;;;;7.45;5.18;;;;;;;27.35;44.23;98789.16;5011402;28;20025;-59
2022/08/09 10:13:15;;;;;;;6.80;4.95;;;;;;;27.21;44.45;98782.56;5012328;28;20084;-56
2022/08/09 10:15:48;;;;;;;6.47;4.80;;;;;;;27.32;44.52;98775.50;5025202;28;20496;-58
2022/08/09 10:18:14;;;;;;;6.50;4.47;;;;;;;27.28;45.51;98772.53;5004853;28;20037;-60
2022/08/09 10:20:39;;;;;;;7.10;4.70;;;;;;;27.49;44.62;98772.75;5023105;28;20403;-58
2022/08/09 10:23:19;;;;;;;6.32;4.68;;;;;;;27.38;44.22;98747.78;5024256;28;20037;-58
2022/08/09 10:25:49;;;;;;;7.25;5.20;;;;;;;27.67;43.97;98768.91;5017321;28;20294;-61
2022/08/09 10:28:15;;;;;;;8.25;5.18;;;;;;;27.96;43.22;98777.47;5020114;28;20025;-58
2022/08/09 10:30:40;;;;;;;8.75;4.50;;;;;;;28.09;43.19;98763.72;5019484;28;20131;-59
2022/08/09 10:33:07;;;;;;;6.80;4.88;;;;;;;28.08;42.47;98772.00;5022996;28;20040;-57
2022/08/09 10:35:33;;;;;;;6.20;4.80;;;;;;;27.91;43.48;98769.41;5025437;28;20025;-61
2022/08/09 10:38:02;;;;;;;6.90;4.70;;;;;;;27.88;43.81;98764.56;5015208;28;20029;-59
2022/08/09 10:40:28;;;;;;;6.93;4.47;;;;;;;27.88;43.70;98757.34;5016214;28;20119;-58
2022/08/09 10:42:53;;;;;;;6.22;4.50;;;;;;;27.87;43.76;98758.41;5022036;28;20288;-60
2022/08/09 10:45:20;;;;;;;7.00;4.80;;;;;;;27.79;43.18;98750.88;5021499;28;20124;-58
2022/08/09 10:48:03;;;;;;;8.25;4.78;;;;;;;27.64;43.82;98716.81;5022961;28;20516;-58
2022/08/09 10:53:41;;;;;;;8.10;5.22;;;;;;;27.81;44.90;98752.22;5009054;28;20048;-59
2022/08/09 10:56:34;;;;;;;7.57;5.03;;;;;;;27.59;44.65;98706.88;5009907;28;20029;-56
2022/08/09 10:59:20;;;;;;;6.68;4.65;;;;;;;27.79;44.01;98738.31;5011228;28;20051;-59
2022/08/09 11:01:49;;;;;;;7.03;4.75;;;;;;;27.81;46.13;98727.38;5011564;28;20333;-61
2022/08/09 11:04:22;;;;;;;;;;;;;;;27.50;46.56;98718.28;5015907;28;20045;-59
2022/08/09 11:06:56;;;;;;;6.93;4.88;;;;;;;27.80;44.74;98723.06;5018009;28;19921;-58
2022/08/09 11:09:42;;;;;;;7.35;4.88;;;;;;;27.75;44.88;98720.38;5015377;28;20036;-61
2022/08/09 11:12:11;;;;;;;7.45;4.97;;;;;;;27.81;46.01;98714.81;5021575;28;20044;-57
2022/08/09 11:14:40;;;;;;;8.73;4.90;;;;;;;27.84;45.30;98718.88;5021217;28;20516;-59
2022/08/09 11:17:12;;;;;;;7.70;4.65;;;;;;;27.89;45.58;98715.41;5018213;28;20040;-58
2022/08/09 11:19:51;;;;;;;7.68;5.22;;;;;;;27.79;48.00;98668.84;5006761;28;20048;-58
2022/08/09 11:22:16;;;;;;;;;;;;;;;28.08;46.21;98707.84;4992132;28;20107;-59
2022/08/09 11:25:03;;;;;;;8.02;4.90;;;;;;;27.88;46.69;98703.94;5010434;28;20495;-59
2022/08/09 11:27:29;;;;;;;6.68;4.97;;;;;;;27.85;45.60;98707.09;5021837;28;20083;-57
2022/08/09 11:29:56;;;;;;;7.43;4.93;;;;;;;27.59;46.83;98701.53;5015904;28;20045;-59
2022/08/09 11:32:50;;;;;;;8.68;5.00;;;;;;;27.45;46.16;98699.53;5014489;28;20033;-59
2022/08/09 11:35:44;;;;;;;7.72;5.00;;;;;;;27.46;46.70;98701.16;5016802;28;20037;-57
2022/08/09 11:38:13;;;;;;;7.38;5.10;;;;;;;27.69;46.96;98702.69;5009097;28;20267;-57
2022/08/09 11:40:38;;;;;;;7.27;4.97;;;;;;;27.88;45.07;98706.59;5010226;28;20030;-58